X  Chiuso Dati meteorologici dell'aviazione (METAR)     EHBK Maastricht Aachen Airport
Temperatura
63°F Temperatura
57°F Punto di rugiada
83% Umidità



Vento
9 MPH
14 KM/O
4 M/S
8 KTS



260°
O
Condizioni attuali

Chiaro Pioggerella Chiaro Pioggerella
Pressione 1006.77 (hPa) - 29.73 (inHg)
Visibilità 6 (miglio) - 9.7 (km)
Aeroporto
Codice-Aeroporto EHBK

Posizione: Maastricht Aachen Airport
Distanza: 26 (mi)

Metar:
EHBK 211455Z AUTO 26008KT 210V290 9999 -DZ FEW014 BKN028 BKN032 17/14 Q1007 TEMPO 4000 SHRA BKN012 SCT030CB

Ore: 21-05-2024 16:55 CEST